Home   Weather   Israel   Netanya   Past weeks
Flag for Israel

Past Weather in Netanya, Israel — Yesterday and Last 2 Weeks

Currently: 52 °F. Clear. (Weather station: Ben Gurion International Airport, Israel). See more current weather

Past Weather in Netanya — Graph

°F

Netanya Temperature Yesterday

Maximum temperature yesterday: 66 °F (at 11:50 am)
Minimum temperature yesterday: 50 °F (at 2:50 am)
Average temperature yesterday: 58 °F

High & Low Weather Summary for the Past Weeks

 TemperatureHumidityPressure
High77 °F (Feb 13, 11:50 am)100% (Feb 21, 5:50 am)30.21 "Hg (Feb 21, 5:50 am)
Low46 °F (Feb 21, 5:50 am)22% (Feb 13, 12:20 pm)29.71 "Hg (Feb 13, 2:20 pm)
Average59 °F72%30.03 "Hg
* Reported Feb 8 1:20 am — Feb 23 1:20 am, Netanya. Weather by CustomWeather, © 2024

Note: Actual official high and low records may vary slightly from our data, if they occured in-between our weather recording intervals... More about our weather records

Netanya Weather History for the Previous 24 Hours

Scroll right to see more
 ConditionsComfort  
Time TempWeatherWind HumidityBarometerVisibility
1:20 am
Fri, Feb 23
52 °FClear.3 mph88%30.12 "Hg10 mi
12:50 am52 °FClear.3 mph88%30.12 "Hg10 mi
12:20 am54 °FClear.1 mph82%30.12 "Hg10 mi
11:20 pm
Thu, Feb 22
55 °FClear.5 mph82%30.12 "Hg10 mi
10:50 pm55 °FClear.2 mph82%30.12 "Hg10 mi
10:20 pm55 °FClear.3 mph82%30.12 "Hg10 mi
9:50 pm57 °FClear.5 mph77%30.12 "Hg10 mi
9:20 pm57 °FClear.3 mph77%30.12 "Hg10 mi
8:20 pm57 °FClear.2 mph77%30.12 "Hg10 mi
7:50 pm59 °FClear.1 mph72%30.12 "Hg10 mi
7:20 pm61 °FPassing clouds.2 mph68%30.12 "HgN/A
6:50 pm59 °FPassing clouds.6 mph72%30.09 "HgN/A
6:20 pm61 °FPassing clouds.6 mph68%30.09 "HgN/A
5:50 pm61 °FPassing clouds.7 mph68%30.09 "HgN/A
5:20 pm64 °FPassing clouds.7 mph60%30.09 "HgN/A
4:50 pm64 °FPassing clouds.8 mph60%30.09 "HgN/A
3:50 pm64 °FPassing clouds.12 mph60%30.07 "HgN/A
3:20 pm64 °FPassing clouds.9 mph60%30.07 "HgN/A
2:50 pm66 °FScattered clouds.10 mph60%30.09 "HgN/A
2:20 pm64 °FScattered clouds.9 mph60%30.09 "HgN/A
1:50 pm64 °FPassing clouds.9 mph64%30.09 "HgN/A
1:20 pm66 °FPassing clouds.8 mph56%30.09 "HgN/A
12:50 pm66 °FScattered clouds.7 mph56%30.12 "HgN/A
12:20 pm64 °FScattered clouds.7 mph64%30.12 "HgN/A
11:50 am66 °FScattered clouds.2 mph56%30.12 "HgN/A
11:20 am64 °FScattered clouds.5 mph60%30.12 "HgN/A
10:50 am63 °FScattered clouds.7 mph64%30.15 "HgN/A
10:20 am63 °FScattered clouds.6 mph68%30.15 "HgN/A
9:50 am63 °FPartly sunny.1 mph68%30.12 "HgN/A
9:20 am59 °FPartly sunny.1 mph77%30.15 "HgN/A
8:50 am59 °FPartly sunny.1 mph77%30.15 "HgN/A
8:20 am57 °FPartly sunny.1 mph72%30.12 "HgN/A
7:50 am54 °FPartly sunny.1 mph82%30.12 "HgN/A
7:20 am52 °FPartly sunny.2 mph88%30.12 "HgN/A
6:50 am52 °FPartly sunny.2 mph82%30.12 "HgN/A
6:20 am50 °FPartly sunny.2 mph88%30.12 "HgN/A
5:50 am50 °FPassing clouds.2 mph88%30.12 "HgN/A
5:20 am50 °FPassing clouds.2 mph88%30.12 "HgN/A
4:50 am50 °FPassing clouds.2 mph88%30.12 "HgN/A
4:20 am50 °FPassing clouds.2 mph88%30.12 "HgN/A
3:50 am50 °FPassing clouds.2 mph88%30.12 "HgN/A
3:20 am52 °FPassing clouds.2 mph82%30.12 "HgN/A
Weather by CustomWeather, © 2024

See weather overview